sensor_id;sensor_type;location;lat;lon;timestamp;pressure;altitude;pressure_sealevel;temperature;humidity
25080;BME280;13071;48.868;9.996;2023-07-13T00:00:46;96414.59;;;20.31;70.76
25080;BME280;13071;48.868;9.996;2023-07-13T00:03:13;96414.59;;;20.23;70.71
25080;BME280;13071;48.868;9.996;2023-07-13T00:05:41;96405.97;;;20.18;71.25
25080;BME280;13071;48.868;9.996;2023-07-13T00:08:07;96404.81;;;20.15;70.99
25080;BME280;13071;48.868;9.996;2023-07-13T00:10:39;96393.00;;;20.18;71.63
25080;BME280;13071;48.868;9.996;2023-07-13T00:13:07;96394.22;;;20.10;72.13
25080;BME280;13071;48.868;9.996;2023-07-13T00:15:34;96381.28;;;20.11;72.35
25080;BME280;13071;48.868;9.996;2023-07-13T00:18:01;96382.50;;;19.89;73.33
25080;BME280;13071;48.868;9.996;2023-07-13T00:20:27;96386.84;;;19.82;74.01
25080;BME280;13071;48.868;9.996;2023-07-13T00:22:55;96389.19;;;19.73;74.34
25080;BME280;13071;48.868;9.996;2023-07-13T00:25:23;96398.22;;;19.74;73.91
25080;BME280;13071;48.868;9.996;2023-07-13T00:27:51;96405.69;;;19.77;74.07
25080;BME280;13071;48.868;9.996;2023-07-13T00:30:18;96395.47;;;19.88;73.09
25080;BME280;13071;48.868;9.996;2023-07-13T00:32:45;96404.09;;;19.69;73.59
25080;BME280;13071;48.868;9.996;2023-07-13T00:35:13;96404.13;;;19.58;74.16
25080;BME280;13071;48.868;9.996;2023-07-13T00:37:40;96408.84;;;19.58;74.06
25080;BME280;13071;48.868;9.996;2023-07-13T00:40:10;96412.75;;;19.50;74.90
25080;BME280;13071;48.868;9.996;2023-07-13T00:42:37;96430.38;;;19.41;75.09
25080;BME280;13071;48.868;9.996;2023-07-13T00:45:07;96422.53;;;19.33;75.34
25080;BME280;13071;48.868;9.996;2023-07-13T00:47:34;96428.78;;;19.30;75.62
25080;BME280;13071;48.868;9.996;2023-07-13T00:50:01;96420.56;;;19.30;75.45
25080;BME280;13071;48.868;9.996;2023-07-13T00:52:29;96428.00;;;19.40;75.11
25080;BME280;13071;48.868;9.996;2023-07-13T00:54:56;96431.16;;;19.38;74.73
25080;BME280;13071;48.868;9.996;2023-07-13T00:57:25;96432.72;;;19.36;75.28
25080;BME280;13071;48.868;9.996;2023-07-13T00:59:53;96439.03;;;19.47;74.95
25080;BME280;13071;48.868;9.996;2023-07-13T01:02:22;96440.19;;;19.46;75.02
25080;BME280;13071;48.868;9.996;2023-07-13T01:04:49;96446.09;;;19.48;74.74
25080;BME280;13071;48.868;9.996;2023-07-13T01:07:16;96440.59;;;19.59;74.54
25080;BME280;13071;48.868;9.996;2023-07-13T01:09:43;96441.00;;;19.47;73.21
25080;BME280;13071;48.868;9.996;2023-07-13T01:12:10;96428.84;;;19.48;73.74
25080;BME280;13071;48.868;9.996;2023-07-13T01:14:40;96436.69;;;19.53;72.25
25080;BME280;13071;48.868;9.996;2023-07-13T01:17:08;96435.50;;;19.61;71.37
25080;BME280;13071;48.868;9.996;2023-07-13T01:19:37;96442.16;;;19.60;70.46
25080;BME280;13071;48.868;9.996;2023-07-13T01:22:07;96444.13;;;19.52;70.37
25080;BME280;13071;48.868;9.996;2023-07-13T01:24:37;96435.50;;;19.71;69.79
25080;BME280;13071;48.868;9.996;2023-07-13T01:27:05;96442.94;;;19.78;69.23
25080;BME280;13071;48.868;9.996;2023-07-13T01:29:34;96446.06;;;19.69;69.31
25080;BME280;13071;48.868;9.996;2023-07-13T01:32:08;96448.84;;;19.62;69.39
25080;BME280;13071;48.868;9.996;2023-07-13T01:34:35;96449.22;;;19.61;69.00
25080;BME280;13071;48.868;9.996;2023-07-13T01:37:03;96455.91;;;19.63;68.83
25080;BME280;13071;48.868;9.996;2023-07-13T01:39:31;96454.69;;;19.54;69.07
25080;BME280;13071;48.868;9.996;2023-07-13T01:41:58;96445.69;;;19.50;69.20
25080;BME280;13071;48.868;9.996;2023-07-13T01:44:25;96447.63;;;19.49;69.27
25080;BME280;13071;48.868;9.996;2023-07-13T01:46:52;96451.59;;;19.48;69.24
25080;BME280;13071;48.868;9.996;2023-07-13T01:49:19;96442.16;;;19.38;69.15
25080;BME280;13071;48.868;9.996;2023-07-13T01:51:46;96444.06;;;19.34;69.62
25080;BME280;13071;48.868;9.996;2023-07-13T01:54:12;96452.75;;;19.51;69.34
25080;BME280;13071;48.868;9.996;2023-07-13T01:56:41;96455.06;;;19.41;69.69
25080;BME280;13071;48.868;9.996;2023-07-13T01:59:07;96454.66;;;19.25;70.21
25080;BME280;13071;48.868;9.996;2023-07-13T02:01:34;96457.78;;;19.17;71.09
25080;BME280;13071;48.868;9.996;2023-07-13T02:04:01;96447.56;;;19.10;71.58
25080;BME280;13071;48.868;9.996;2023-07-13T02:06:28;96447.97;;;19.09;71.84
25080;BME280;13071;48.868;9.996;2023-07-13T02:08:55;96456.97;;;18.98;72.12
25080;BME280;13071;48.868;9.996;2023-07-13T02:11:22;96454.19;;;18.88;72.75
25080;BME280;13071;48.868;9.996;2023-07-13T02:13:51;96451.84;;;18.83;72.85
25080;BME280;13071;48.868;9.996;2023-07-13T02:16:18;96459.22;;;18.75;73.24
25080;BME280;13071;48.868;9.996;2023-07-13T02:18:45;96453.78;;;18.79;72.70
25080;BME280;13071;48.868;9.996;2023-07-13T02:21:11;96451.38;;;18.63;72.92
25080;BME280;13071;48.868;9.996;2023-07-13T02:23:38;96458.44;;;18.71;72.52
25080;BME280;13071;48.868;9.996;2023-07-13T02:26:05;96458.44;;;18.75;71.98
25080;BME280;13071;48.868;9.996;2023-07-13T02:28:31;96462.78;;;18.79;71.47
25080;BME280;13071;48.868;9.996;2023-07-13T02:31:06;96464.28;;;18.59;71.29
25080;BME280;13071;48.868;9.996;2023-07-13T02:33:32;96463.88;;;18.53;71.52
25080;BME280;13071;48.868;9.996;2023-07-13T02:35:59;96469.69;;;18.48;71.52
25080;BME280;13071;48.868;9.996;2023-07-13T02:38:25;96472.81;;;18.50;70.81
25080;BME280;13071;48.868;9.996;2023-07-13T02:40:52;96469.69;;;18.52;71.15
25080;BME280;13071;48.868;9.996;2023-07-13T02:43:19;96470.44;;;18.45;71.27
25080;BME280;13071;48.868;9.996;2023-07-13T02:45:46;96471.22;;;18.42;71.03
25080;BME280;13071;48.868;9.996;2023-07-13T02:48:14;96464.16;;;18.41;71.00
25080;BME280;13071;48.868;9.996;2023-07-13T02:50:41;96461.78;;;18.33;71.27
25080;BME280;13071;48.868;9.996;2023-07-13T02:53:07;96466.47;;;18.29;71.26
25080;BME280;13071;48.868;9.996;2023-07-13T02:55:34;96463.66;;;18.22;71.39
25080;BME280;13071;48.868;9.996;2023-07-13T02:58:01;96460.91;;;18.18;71.05
25080;BME280;13071;48.868;9.996;2023-07-13T03:00:27;96463.66;;;18.18;71.27
25080;BME280;13071;48.868;9.996;2023-07-13T03:02:54;96459.25;;;18.03;71.62
25080;BME280;13071;48.868;9.996;2023-07-13T03:05:24;96464.81;;;18.13;71.77
25080;BME280;13071;48.868;9.996;2023-07-13T03:07:51;96468.34;;;18.14;71.31
25080;BME280;13071;48.868;9.996;2023-07-13T03:10:17;96465.94;;;18.09;71.74
25080;BME280;13071;48.868;9.996;2023-07-13T03:12:45;96476.41;;;17.93;72.26
25080;BME280;13071;48.868;9.996;2023-07-13T03:15:11;96476.41;;;17.96;72.91
25080;BME280;13071;48.868;9.996;2023-07-13T03:17:38;96471.53;;;17.68;73.60
25080;BME280;13071;48.868;9.996;2023-07-13T03:20:06;96477.88;;;17.80;73.36
25080;BME280;13071;48.868;9.996;2023-07-13T03:22:35;96480.50;;;17.65;73.88
25080;BME280;13071;48.868;9.996;2023-07-13T03:25:02;96482.81;;;17.63;73.94
25080;BME280;13071;48.868;9.996;2023-07-13T03:27:29;96488.75;;;17.73;73.80
25080;BME280;13071;48.868;9.996;2023-07-13T03:29:55;96490.53;;;17.54;73.81
25080;BME280;13071;48.868;9.996;2023-07-13T03:32:22;96495.16;;;17.47;74.09
25080;BME280;13071;48.868;9.996;2023-07-13T03:34:48;96492.75;;;17.38;74.74
25080;BME280;13071;48.868;9.996;2023-07-13T03:37:15;96506.38;;;17.35;75.75
25080;BME280;13071;48.868;9.996;2023-07-13T03:39:43;96500.16;;;17.38;75.52
25080;BME280;13071;48.868;9.996;2023-07-13T03:42:10;96508.44;;;17.45;75.38
25080;BME280;13071;48.868;9.996;2023-07-13T03:44:39;96505.03;;;17.58;74.09
25080;BME280;13071;48.868;9.996;2023-07-13T03:47:06;96507.72;;;17.51;74.33
25080;BME280;13071;48.868;9.996;2023-07-13T03:49:34;96509.53;;;17.37;74.86
25080;BME280;13071;48.868;9.996;2023-07-13T03:52:01;96508.44;;;17.45;74.62
25080;BME280;13071;48.868;9.996;2023-07-13T03:54:27;96509.69;;;17.54;74.46
25080;BME280;13071;48.868;9.996;2023-07-13T03:56:56;96510.47;;;17.51;74.00
25080;BME280;13071;48.868;9.996;2023-07-13T03:59:22;96510.88;;;17.57;73.56
25080;BME280;13071;48.868;9.996;2023-07-13T04:01:49;96514.81;;;17.56;73.34
25080;BME280;13071;48.868;9.996;2023-07-13T04:04:16;96511.78;;;17.68;72.24
25080;BME280;13071;48.868;9.996;2023-07-13T04:06:42;96513.41;;;17.76;71.71
25080;BME280;13071;48.868;9.996;2023-07-13T04:09:09;96518.47;;;17.71;72.02
25080;BME280;13071;48.868;9.996;2023-07-13T04:11:36;96511.47;;;17.77;72.59
25080;BME280;13071;48.868;9.996;2023-07-13T04:14:04;96515.06;;;17.84;72.53
25080;BME280;13071;48.868;9.996;2023-07-13T04:16:31;96515.69;;;18.15;72.37
25080;BME280;13071;48.868;9.996;2023-07-13T04:18:58;96525.72;;;19.76;67.68
25080;BME280;13071;48.868;9.996;2023-07-13T04:21:25;96523.13;;;21.06;62.32
25080;BME280;13071;48.868;9.996;2023-07-13T04:23:52;96523.00;;;21.89;60.15
25080;BME280;13071;48.868;9.996;2023-07-13T04:26:19;96529.78;;;22.29;59.00
25080;BME280;13071;48.868;9.996;2023-07-13T04:28:48;96531.22;;;22.41;58.44
25080;BME280;13071;48.868;9.996;2023-07-13T04:31:16;96526.25;;;22.25;56.28
25080;BME280;13071;48.868;9.996;2023-07-13T04:33:43;96537.56;;;21.93;56.61
25080;BME280;13071;48.868;9.996;2023-07-13T04:36:10;96539.81;;;21.47;58.72
25080;BME280;13071;48.868;9.996;2023-07-13T04:38:37;96531.31;;;21.82;58.88
25080;BME280;13071;48.868;9.996;2023-07-13T04:41:05;96533.53;;;22.05;58.69
25080;BME280;13071;48.868;9.996;2023-07-13T04:43:33;96527.91;;;22.16;59.14
25080;BME280;13071;48.868;9.996;2023-07-13T04:46:03;96529.34;;;22.34;59.20
25080;BME280;13071;48.868;9.996;2023-07-13T04:48:32;96535.50;;;22.46;57.55
25080;BME280;13071;48.868;9.996;2023-07-13T04:50:59;96533.28;;;22.33;57.78
25080;BME280;13071;48.868;9.996;2023-07-13T07:14:43;96624.97;;;20.03;58.16
25080;BME280;13071;48.868;9.996;2023-07-13T07:17:10;96631.28;;;20.25;57.41
25080;BME280;13071;48.868;9.996;2023-07-13T10:37:07;96659.59;;;24.72;40.66
25080;BME280;13071;48.868;9.996;2023-07-13T10:39:41;96653.53;;;25.24;40.29
25080;BME280;13071;48.868;9.996;2023-07-13T10:42:13;96648.88;;;25.80;40.31
25080;BME280;13071;48.868;9.996;2023-07-13T10:44:41;96646.50;;;26.14;39.70
25080;BME280;13071;48.868;9.996;2023-07-13T10:47:13;96649.84;;;26.58;39.40
25080;BME280;13071;48.868;9.996;2023-07-13T10:49:44;96645.69;;;26.66;37.59
25080;BME280;13071;48.868;9.996;2023-07-13T10:52:42;96653.94;;;26.53;37.98
25080;BME280;13071;48.868;9.996;2023-07-13T10:55:33;96654.97;;;26.43;38.00
25080;BME280;13071;48.868;9.996;2023-07-13T10:58:01;96644.56;;;26.47;37.84
25080;BME280;13071;48.868;9.996;2023-07-13T11:00:31;96638.72;;;26.74;38.17
25080;BME280;13071;48.868;9.996;2023-07-13T11:03:00;96630.59;;;26.67;38.47
25080;BME280;13071;48.868;9.996;2023-07-13T11:05:31;96630.22;;;26.81;37.27
25080;BME280;13071;48.868;9.996;2023-07-13T11:08:19;96633.09;;;26.45;37.15
25080;BME280;13071;48.868;9.996;2023-07-13T11:10:52;96644.53;;;25.95;37.86
25080;BME280;13071;48.868;9.996;2023-07-13T11:13:38;96640.84;;;26.38;37.96
25080;BME280;13071;48.868;9.996;2023-07-13T11:16:35;96628.19;;;24.36;38.45
25080;BME280;13071;48.868;9.996;2023-07-13T11:39:02;96616.19;;;25.32;39.84
25080;BME280;13071;48.868;9.996;2023-07-13T11:41:33;96620.22;;;25.67;40.46
25080;BME280;13071;48.868;9.996;2023-07-13T11:44:06;96620.75;;;24.56;41.36
25080;BME280;13071;48.868;9.996;2023-07-13T11:46:33;96621.25;;;24.47;41.29
25080;BME280;13071;48.868;9.996;2023-07-13T11:49:00;96627.22;;;24.92;40.79
25080;BME280;13071;48.868;9.996;2023-07-13T11:51:28;96640.41;;;24.62;40.73
25080;BME280;13071;48.868;9.996;2023-07-13T11:53:58;96638.94;;;24.77;40.60
25080;BME280;13071;48.868;9.996;2023-07-13T11:56:29;96627.28;;;24.16;40.66
25080;BME280;13071;48.868;9.996;2023-07-13T11:58:59;96623.78;;;24.38;40.69
25080;BME280;13071;48.868;9.996;2023-07-13T12:01:31;96627.34;;;24.62;41.30
25080;BME280;13071;48.868;9.996;2023-07-13T12:04:00;96624.28;;;24.33;41.10
25080;BME280;13071;48.868;9.996;2023-07-13T12:06:29;96624.41;;;24.96;40.82
25080;BME280;13071;48.868;9.996;2023-07-13T12:08:58;96623.66;;;25.15;40.94
25080;BME280;13071;48.868;9.996;2023-07-13T12:11:28;96616.09;;;24.49;40.67
25080;BME280;13071;48.868;9.996;2023-07-13T12:13:55;96624.00;;;24.51;43.52
25080;BME280;13071;48.868;9.996;2023-07-13T12:16:26;96623.00;;;25.08;41.07
25080;BME280;13071;48.868;9.996;2023-07-13T12:18:55;96625.34;;;25.29;40.09
25080;BME280;13071;48.868;9.996;2023-07-13T12:21:28;96619.63;;;25.75;40.15
25080;BME280;13071;48.868;9.996;2023-07-13T12:23:56;96628.03;;;25.52;41.34
25080;BME280;13071;48.868;9.996;2023-07-13T12:26:24;96619.72;;;25.13;41.74
25080;BME280;13071;48.868;9.996;2023-07-13T12:28:54;96619.59;;;25.95;39.51
25080;BME280;13071;48.868;9.996;2023-07-13T12:31:31;96616.00;;;26.14;38.64
25080;BME280;13071;48.868;9.996;2023-07-13T12:34:02;96616.13;;;25.75;40.78
25080;BME280;13071;48.868;9.996;2023-07-13T12:36:31;96623.91;;;26.32;39.88
25080;BME280;13071;48.868;9.996;2023-07-13T13:19:49;96598.69;;;26.59;39.27
25080;BME280;13071;48.868;9.996;2023-07-13T13:22:19;96597.06;;;26.74;38.54
25080;BME280;13071;48.868;9.996;2023-07-13T13:24:46;96593.63;;;26.70;39.20
25080;BME280;13071;48.868;9.996;2023-07-13T13:27:15;96599.06;;;25.93;40.14
25080;BME280;13071;48.868;9.996;2023-07-13T13:29:44;96593.75;;;25.82;40.68
25080;BME280;13071;48.868;9.996;2023-07-13T13:32:12;96600.75;;;24.68;43.94
25080;BME280;13071;48.868;9.996;2023-07-13T13:34:39;96583.41;;;25.47;40.67
25080;BME280;13071;48.868;9.996;2023-07-13T13:37:16;96584.84;;;25.74;40.23
25080;BME280;13071;48.868;9.996;2023-07-13T13:39:44;96573.34;;;26.08;41.03
25080;BME280;13071;48.868;9.996;2023-07-13T13:42:12;96582.59;;;25.86;41.82
25080;BME280;13071;48.868;9.996;2023-07-13T13:44:39;96585.91;;;25.41;41.87
25080;BME280;13071;48.868;9.996;2023-07-13T13:47:25;96585.69;;;25.52;42.21
25080;BME280;13071;48.868;9.996;2023-07-13T13:49:54;96585.88;;;24.82;41.28
25080;BME280;13071;48.868;9.996;2023-07-13T13:52:22;96594.59;;;25.04;41.93
25080;BME280;13071;48.868;9.996;2023-07-13T13:54:49;96592.28;;;24.56;41.79
25080;BME280;13071;48.868;9.996;2023-07-13T13:57:21;96601.16;;;24.47;42.91
25080;BME280;13071;48.868;9.996;2023-07-13T13:59:48;96592.81;;;25.13;42.53
25080;BME280;13071;48.868;9.996;2023-07-13T14:02:22;96602.78;;;25.11;42.67
25080;BME280;13071;48.868;9.996;2023-07-13T14:04:53;96590.25;;;25.22;42.96
25080;BME280;13071;48.868;9.996;2023-07-13T14:07:22;96588.81;;;25.73;40.73
25080;BME280;13071;48.868;9.996;2023-07-13T14:09:49;96593.16;;;25.91;40.39
25080;BME280;13071;48.868;9.996;2023-07-13T14:12:16;96587.47;;;25.98;40.02
25080;BME280;13071;48.868;9.996;2023-07-13T14:14:43;96585.56;;;26.11;39.29
25080;BME280;13071;48.868;9.996;2023-07-13T14:17:19;96583.88;;;25.65;40.71
25080;BME280;13071;48.868;9.996;2023-07-13T14:19:47;96588.19;;;25.07;41.63
25080;BME280;13071;48.868;9.996;2023-07-13T14:22:16;96587.25;;;24.50;42.32
25080;BME280;13071;48.868;9.996;2023-07-13T14:24:44;96590.63;;;25.05;41.81
25080;BME280;13071;48.868;9.996;2023-07-13T14:27:11;96580.69;;;24.84;41.75
25080;BME280;13071;48.868;9.996;2023-07-13T14:29:38;96592.69;;;24.77;41.67
25080;BME280;13071;48.868;9.996;2023-07-13T14:32:10;96580.03;;;25.00;41.31
25080;BME280;13071;48.868;9.996;2023-07-13T14:34:36;96586.16;;;25.11;42.21
25080;BME280;13071;48.868;9.996;2023-07-13T14:37:04;96577.50;;;25.84;39.26
25080;BME280;13071;48.868;9.996;2023-07-13T14:39:31;96581.84;;;26.17;40.71
25080;BME280;13071;48.868;9.996;2023-07-13T14:41:59;96588.00;;;26.09;40.12
25080;BME280;13071;48.868;9.996;2023-07-13T14:44:28;96585.75;;;26.52;39.39
25080;BME280;13071;48.868;9.996;2023-07-13T14:46:56;96593.38;;;25.64;40.15
25080;BME280;13071;48.868;9.996;2023-07-13T14:49:25;96584.59;;;26.01;40.59
25080;BME280;13071;48.868;9.996;2023-07-13T14:51:52;96591.53;;;25.37;41.54
25080;BME280;13071;48.868;9.996;2023-07-13T14:54:19;96585.66;;;26.07;41.59
25080;BME280;13071;48.868;9.996;2023-07-13T14:56:45;96581.94;;;25.62;42.19
25080;BME280;13071;48.868;9.996;2023-07-13T14:59:13;96581.94;;;25.42;41.51
25080;BME280;13071;48.868;9.996;2023-07-13T15:01:41;96583.88;;;25.25;41.29
25080;BME280;13071;48.868;9.996;2023-07-13T15:04:07;96587.25;;;25.53;39.65
25080;BME280;13071;48.868;9.996;2023-07-13T15:06:53;96599.72;;;25.64;40.28
25080;BME280;13071;48.868;9.996;2023-07-13T15:09:20;96590.34;;;25.58;38.92
25080;BME280;13071;48.868;9.996;2023-07-13T15:11:46;96586.66;;;25.81;40.45
25080;BME280;13071;48.868;9.996;2023-07-13T15:14:14;96586.38;;;26.44;38.12
25080;BME280;13071;48.868;9.996;2023-07-13T15:16:42;96582.38;;;26.45;38.60
25080;BME280;13071;48.868;9.996;2023-07-13T15:19:09;96594.09;;;25.28;40.00
25080;BME280;13071;48.868;9.996;2023-07-13T15:21:36;96595.66;;;25.10;39.96
25080;BME280;13071;48.868;9.996;2023-07-13T15:24:03;96588.56;;;25.09;40.98
25080;BME280;13071;48.868;9.996;2023-07-13T15:26:33;96597.81;;;24.56;40.51
25080;BME280;13071;48.868;9.996;2023-07-13T15:29:00;96595.75;;;24.83;40.77
25080;BME280;13071;48.868;9.996;2023-07-13T15:31:29;96585.78;;;24.66;40.84
25080;BME280;13071;48.868;9.996;2023-07-13T15:33:58;96589.69;;;25.11;40.43
25080;BME280;13071;48.868;9.996;2023-07-13T15:36:26;96590.16;;;25.85;39.93
25080;BME280;13071;48.868;9.996;2023-07-13T15:38:54;96588.13;;;25.30;39.66
25080;BME280;13071;48.868;9.996;2023-07-13T15:41:23;96595.69;;;24.86;41.29
25080;BME280;13071;48.868;9.996;2023-07-13T15:43:51;96593.47;;;25.01;41.26
25080;BME280;13071;48.868;9.996;2023-07-13T15:46:18;96598.72;;;24.96;40.72
25080;BME280;13071;48.868;9.996;2023-07-13T15:48:48;96602.38;;;24.89;40.55
25080;BME280;13071;48.868;9.996;2023-07-13T15:51:20;96612.84;;;24.04;42.04
25080;BME280;13071;48.868;9.996;2023-07-13T15:53:48;96595.31;;;24.15;41.50
25080;BME280;13071;48.868;9.996;2023-07-13T15:56:19;96597.09;;;24.75;42.35
25080;BME280;13071;48.868;9.996;2023-07-13T15:58:47;96590.03;;;25.33;41.80
25080;BME280;13071;48.868;9.996;2023-07-13T16:01:14;96602.97;;;25.20;40.88
25080;BME280;13071;48.868;9.996;2023-07-13T16:03:41;96587.13;;;25.60;40.10
25080;BME280;13071;48.868;9.996;2023-07-13T16:06:15;96587.19;;;25.92;39.94
25080;BME280;13071;48.868;9.996;2023-07-13T16:08:44;96587.06;;;25.24;40.69
25080;BME280;13071;48.868;9.996;2023-07-13T16:11:16;96599.84;;;24.28;41.97
25080;BME280;13071;48.868;9.996;2023-07-13T16:13:44;96596.88;;;24.16;42.51
25080;BME280;13071;48.868;9.996;2023-07-13T16:16:12;96599.56;;;23.96;42.58
25080;BME280;13071;48.868;9.996;2023-07-13T16:18:39;96597.41;;;24.07;42.80
25080;BME280;13071;48.868;9.996;2023-07-13T16:21:10;96591.88;;;24.07;43.55
25080;BME280;13071;48.868;9.996;2023-07-13T16:23:39;96595.84;;;24.06;43.49
25080;BME280;13071;48.868;9.996;2023-07-13T16:26:22;96605.09;;;23.96;44.09
25080;BME280;13071;48.868;9.996;2023-07-13T16:28:50;96600.91;;;23.84;42.87
25080;BME280;13071;48.868;9.996;2023-07-13T16:31:29;96598.56;;;23.83;43.10
25080;BME280;13071;48.868;9.996;2023-07-13T16:33:57;96609.72;;;24.02;43.91
25080;BME280;13071;48.868;9.996;2023-07-13T16:36:25;96597.53;;;24.50;42.69
25080;BME280;13071;48.868;9.996;2023-07-13T16:38:53;96602.78;;;24.18;42.63
25080;BME280;13071;48.868;9.996;2023-07-13T16:41:19;96603.03;;;23.73;43.23
25080;BME280;13071;48.868;9.996;2023-07-13T16:43:46;96607.06;;;23.95;42.76
25080;BME280;13071;48.868;9.996;2023-07-13T16:46:16;96611.38;;;23.70;43.18
25080;BME280;13071;48.868;9.996;2023-07-13T16:48:45;96606.09;;;23.79;43.87
25080;BME280;13071;48.868;9.996;2023-07-13T16:51:11;96617.72;;;23.97;43.44
25080;BME280;13071;48.868;9.996;2023-07-13T16:53:38;96621.81;;;24.12;43.93
25080;BME280;13071;48.868;9.996;2023-07-13T16:56:14;96623.19;;;24.00;42.43
25080;BME280;13071;48.868;9.996;2023-07-13T16:58:42;96615.06;;;24.13;42.48
25080;BME280;13071;48.868;9.996;2023-07-13T17:01:08;96624.66;;;23.78;42.58
25080;BME280;13071;48.868;9.996;2023-07-13T17:03:36;96621.19;;;23.74;42.63
25080;BME280;13071;48.868;9.996;2023-07-13T17:06:20;96619.47;;;23.84;43.13
25080;BME280;13071;48.868;9.996;2023-07-13T17:08:49;96619.47;;;24.10;42.85
25080;BME280;13071;48.868;9.996;2023-07-13T17:11:20;96613.34;;;23.69;43.10
25080;BME280;13071;48.868;9.996;2023-07-13T17:13:46;96609.81;;;23.68;43.68
25080;BME280;13071;48.868;9.996;2023-07-13T17:16:13;96607.69;;;24.33;42.35
25080;BME280;13071;48.868;9.996;2023-07-13T17:18:41;96607.88;;;23.65;43.28
25080;BME280;13071;48.868;9.996;2023-07-13T17:21:14;96606.84;;;24.09;42.86
25080;BME280;13071;48.868;9.996;2023-07-13T17:23:42;96614.53;;;24.25;42.33
25080;BME280;13071;48.868;9.996;2023-07-13T17:26:09;96612.13;;;24.50;42.08
25080;BME280;13071;48.868;9.996;2023-07-13T17:28:37;96619.41;;;24.64;42.21
25080;BME280;13071;48.868;9.996;2023-07-13T17:31:04;96621.91;;;24.78;42.25
25080;BME280;13071;48.868;9.996;2023-07-13T17:33:35;96617.47;;;24.38;42.81
25080;BME280;13071;48.868;9.996;2023-07-13T17:36:06;96619.88;;;24.59;42.55
25080;BME280;13071;48.868;9.996;2023-07-13T17:38:40;96618.63;;;24.64;42.49
25080;BME280;13071;48.868;9.996;2023-07-13T17:41:08;96621.25;;;23.97;44.66
25080;BME280;13071;48.868;9.996;2023-07-13T17:43:38;96619.00;;;23.62;44.28
25080;BME280;13071;48.868;9.996;2023-07-13T17:46:10;96620.88;;;23.95;44.27
25080;BME280;13071;48.868;9.996;2023-07-13T17:48:38;96619.47;;;23.84;44.06
25080;BME280;13071;48.868;9.996;2023-07-13T17:51:08;96619.13;;;23.51;44.91
25080;BME280;13071;48.868;9.996;2023-07-13T17:53:35;96622.28;;;23.80;44.88
25080;BME280;13071;48.868;9.996;2023-07-13T17:56:03;96620.25;;;23.57;44.44
25080;BME280;13071;48.868;9.996;2023-07-13T17:58:30;96624.47;;;23.32;43.71
25080;BME280;13071;48.868;9.996;2023-07-13T18:00:58;96627.09;;;23.46;44.04
25080;BME280;13071;48.868;9.996;2023-07-13T18:03:26;96622.25;;;23.53;44.33
25080;BME280;13071;48.868;9.996;2023-07-13T18:05:57;96618.00;;;23.45;44.17
25080;BME280;13071;48.868;9.996;2023-07-13T18:08:25;96632.47;;;23.56;43.62
25080;BME280;13071;48.868;9.996;2023-07-13T18:10:54;96626.28;;;23.45;44.52
25080;BME280;13071;48.868;9.996;2023-07-13T18:13:21;96625.75;;;23.57;44.21
25080;BME280;13071;48.868;9.996;2023-07-13T18:15:48;96634.66;;;23.38;43.94
25080;BME280;13071;48.868;9.996;2023-07-13T18:18:20;96637.22;;;23.86;43.21
25080;BME280;13071;48.868;9.996;2023-07-13T18:20:47;96636.81;;;23.84;43.26
25080;BME280;13071;48.868;9.996;2023-07-13T18:23:16;96645.84;;;23.88;43.06
25080;BME280;13071;48.868;9.996;2023-07-13T18:25:44;96639.66;;;23.81;43.34
25080;BME280;13071;48.868;9.996;2023-07-13T18:28:13;96637.94;;;23.90;43.50
25080;BME280;13071;48.868;9.996;2023-07-13T18:30:41;96646.16;;;23.94;43.67
25080;BME280;13071;48.868;9.996;2023-07-13T18:33:17;96634.06;;;23.84;43.59
25080;BME280;13071;48.868;9.996;2023-07-13T18:35:46;96649.41;;;23.58;43.83
25080;BME280;13071;48.868;9.996;2023-07-13T18:38:17;96638.34;;;23.24;44.36
25080;BME280;13071;48.868;9.996;2023-07-13T18:40:44;96653.91;;;23.45;44.34
25080;BME280;13071;48.868;9.996;2023-07-13T18:43:11;96658.16;;;23.16;44.32
25080;BME280;13071;48.868;9.996;2023-07-13T18:45:38;96659.19;;;22.95;45.00
25080;BME280;13071;48.868;9.996;2023-07-13T18:48:11;96667.28;;;22.72;45.66
25080;BME280;13071;48.868;9.996;2023-07-13T18:50:39;96671.28;;;22.64;45.93
25080;BME280;13071;48.868;9.996;2023-07-13T18:53:13;96664.78;;;22.85;45.55
25080;BME280;13071;48.868;9.996;2023-07-13T18:55:41;96665.19;;;22.35;46.11
25080;BME280;13071;48.868;9.996;2023-07-13T18:58:08;96664.25;;;22.56;45.86
25080;BME280;13071;48.868;9.996;2023-07-13T19:00:35;96667.44;;;22.51;46.75
25080;BME280;13071;48.868;9.996;2023-07-13T19:03:02;96667.88;;;22.46;46.94
25080;BME280;13071;48.868;9.996;2023-07-13T19:05:32;96674.72;;;22.27;46.11
25080;BME280;13071;48.868;9.996;2023-07-13T19:07:59;96680.91;;;22.42;46.54
25080;BME280;13071;48.868;9.996;2023-07-13T19:10:28;96675.34;;;22.45;46.31
25080;BME280;13071;48.868;9.996;2023-07-13T19:12:56;96678.09;;;22.49;46.58
25080;BME280;13071;48.868;9.996;2023-07-13T19:15:25;96685.97;;;22.47;46.66
25080;BME280;13071;48.868;9.996;2023-07-13T19:17:56;96691.56;;;22.36;46.76
25080;BME280;13071;48.868;9.996;2023-07-13T19:20:24;96694.38;;;22.32;46.66
25080;BME280;13071;48.868;9.996;2023-07-13T19:22:53;96701.56;;;22.19;47.18
25080;BME280;13071;48.868;9.996;2023-07-13T19:25:21;96698.47;;;22.10;47.29
25080;BME280;13071;48.868;9.996;2023-07-13T19:27:53;96703.53;;;22.15;47.27
25080;BME280;13071;48.868;9.996;2023-07-13T19:30:23;96706.78;;;21.96;47.50
25080;BME280;13071;48.868;9.996;2023-07-13T19:32:50;96709.19;;;21.90;47.64
25080;BME280;13071;48.868;9.996;2023-07-13T19:35:17;96713.06;;;22.04;47.92
25080;BME280;13071;48.868;9.996;2023-07-13T19:37:44;96717.03;;;21.99;47.62
25080;BME280;13071;48.868;9.996;2023-07-13T19:40:17;96720.56;;;21.96;48.27
25080;BME280;13071;48.868;9.996;2023-07-13T19:42:45;96725.28;;;21.95;48.30
25080;BME280;13071;48.868;9.996;2023-07-13T19:45:16;96735.16;;;21.86;48.77
25080;BME280;13071;48.868;9.996;2023-07-13T19:47:44;96730.06;;;21.81;48.83